createdAt,value
2023-04-23T00:02:00.269Z,14.50
2023-04-23T00:06:10.319Z,14.50
2023-04-23T00:10:14.537Z,14.50
2023-04-23T00:14:21.641Z,14.40
2023-04-23T00:18:29.652Z,14.30
2023-04-23T00:22:34.100Z,14.30
2023-04-23T00:26:38.234Z,14.20
2023-04-23T00:30:45.732Z,14.10
2023-04-23T00:34:49.371Z,14.00
2023-04-23T00:38:55.608Z,13.90
2023-04-23T00:42:59.542Z,13.70
2023-04-23T00:47:10.666Z,13.60
2023-04-23T00:51:14.792Z,13.60
2023-04-23T00:55:21.160Z,13.50
2023-04-23T00:59:24.364Z,13.40
2023-04-23T01:03:31.742Z,13.40
2023-04-23T01:07:36.783Z,13.40
2023-04-23T01:11:48.297Z,13.40
2023-04-23T01:15:53.528Z,13.40
2023-04-23T01:19:56.788Z,13.40
2023-04-23T01:24:01.638Z,13.40
2023-04-23T01:28:08.360Z,13.40
2023-04-23T01:32:11.503Z,13.50
2023-04-23T01:36:15.232Z,13.50
2023-04-23T01:40:19.912Z,13.50
2023-04-23T01:44:26.119Z,13.50
2023-04-23T01:48:31.965Z,13.50
2023-04-23T01:52:34.972Z,13.50
2023-04-23T01:56:41.934Z,13.50
2023-04-23T02:00:45.128Z,13.50
2023-04-23T02:04:50.917Z,13.60
2023-04-23T02:08:54.557Z,13.60
2023-04-23T02:12:59.500Z,13.40
2023-04-23T02:17:07.308Z,13.30
2023-04-23T02:21:11.670Z,13.20
2023-04-23T02:25:15.831Z,13.20
2023-04-23T02:29:21.289Z,13.10
2023-04-23T02:33:24.596Z,13.00
2023-04-23T02:37:30.797Z,12.90
2023-04-23T02:41:34.121Z,12.90
2023-04-23T02:45:41.334Z,12.70
2023-04-23T02:49:45.958Z,12.70
2023-04-23T02:53:48.957Z,12.60
2023-04-23T02:57:52.242Z,12.50
2023-04-23T03:01:56.717Z,12.50
2023-04-23T03:06:05.024Z,12.40
2023-04-23T03:10:12.619Z,12.50
2023-04-23T03:14:16.620Z,12.40
2023-04-23T03:18:21.311Z,12.40
2023-04-23T03:22:24.464Z,12.40
2023-04-23T03:26:27.712Z,12.50
2023-04-23T03:30:34.228Z,12.40
2023-04-23T03:34:39.117Z,12.40
2023-04-23T03:38:42.410Z,12.30
2023-04-23T03:42:48.189Z,12.30
2023-04-23T03:46:58.704Z,12.20
2023-04-23T03:51:08.741Z,12.20
2023-04-23T03:55:14.384Z,12.30
2023-04-23T03:59:17.426Z,12.30
2023-04-23T04:03:20.773Z,12.40
2023-04-23T04:07:30.019Z,12.50
2023-04-23T04:11:33.143Z,12.70
2023-04-23T04:15:36.368Z,12.80
2023-04-23T04:19:39.391Z,12.90
2023-04-23T04:23:43.958Z,13.10
2023-04-23T04:27:46.972Z,13.20
2023-04-23T04:31:53.045Z,13.30
2023-04-23T04:36:09.644Z,13.30
2023-04-23T04:40:19.217Z,13.40
2023-04-23T04:44:22.264Z,13.50
2023-04-23T04:48:25.755Z,13.60
2023-04-23T04:52:30.375Z,13.70
2023-04-23T04:56:35.451Z,13.70
2023-04-23T05:00:38.664Z,13.80
2023-04-23T05:04:43.973Z,13.90
2023-04-23T05:08:50.388Z,14.00
2023-04-23T05:13:00.962Z,14.10
2023-04-23T05:17:04.270Z,14.20
2023-04-23T05:21:13.458Z,14.20
2023-04-23T05:25:19.375Z,14.10
2023-04-23T05:29:24.007Z,14.00
2023-04-23T05:33:33.440Z,13.90
2023-04-23T05:37:39.521Z,13.80
2023-04-23T05:41:42.751Z,13.50
2023-04-23T05:45:47.418Z,13.30
2023-04-23T05:49:50.555Z,13.20
2023-04-23T05:54:05.077Z,13.00
2023-04-23T05:58:09.673Z,12.90
2023-04-23T06:02:16.076Z,12.80
2023-04-23T06:06:19.803Z,12.80
2023-04-23T06:10:25.844Z,12.80
2023-04-23T06:14:31.893Z,12.80
2023-04-23T06:18:38.604Z,12.90
2023-04-23T06:22:41.600Z,12.90
2023-04-23T06:26:46.544Z,12.80
2023-04-23T06:30:49.559Z,12.90
2023-04-23T06:35:00.871Z,12.90
2023-04-23T06:39:07.936Z,12.90
2023-04-23T06:43:12.095Z,13.00
2023-04-23T06:47:18.365Z,13.00
2023-04-23T06:51:22.857Z,13.10
2023-04-23T06:55:27.607Z,13.10
2023-04-23T06:59:33.339Z,13.00
2023-04-23T07:03:36.984Z,13.00
2023-04-23T07:07:47.502Z,12.90
2023-04-23T07:11:51.175Z,12.90
2023-04-23T07:15:55.332Z,12.90
2023-04-23T07:20:05.181Z,13.00
2023-04-23T07:24:14.302Z,13.00
2023-04-23T07:28:20.949Z,13.00
2023-04-23T07:32:28.438Z,13.10
2023-04-23T07:36:36.058Z,13.10
2023-04-23T07:40:40.814Z,13.30
2023-04-23T07:44:46.490Z,13.40
2023-04-23T07:48:50.838Z,13.50
2023-04-23T07:52:54.173Z,13.40
2023-04-23T07:57:03.188Z,13.40
2023-04-23T08:01:08.413Z,13.30
2023-04-23T08:05:14.621Z,13.30
2023-04-23T08:09:19.762Z,13.30
2023-04-23T08:13:24.269Z,13.20
2023-04-23T08:17:27.285Z,13.10
2023-04-23T08:21:31.274Z,13.10
2023-04-23T08:25:34.726Z,13.10
2023-04-23T08:29:40.748Z,13.20
2023-04-23T08:33:44.387Z,13.20
2023-04-23T08:37:47.451Z,13.30
2023-04-23T08:41:56.057Z,13.40
2023-04-23T08:46:05.249Z,13.50
2023-04-23T08:50:10.157Z,13.60
2023-04-23T08:54:17.069Z,13.70
2023-04-23T08:58:24.210Z,13.70
2023-04-23T09:02:34.898Z,13.90
2023-04-23T09:06:38.370Z,14.00
2023-04-23T09:10:42.268Z,14.30
2023-04-23T09:14:48.105Z,14.50
2023-04-23T09:18:53.198Z,14.60
2023-04-23T09:22:56.877Z,14.90
2023-04-23T09:27:04.996Z,15.30
2023-04-23T09:31:22.401Z,15.50
2023-04-23T09:35:29.155Z,15.40
2023-04-23T09:39:37.464Z,15.30
2023-04-23T09:43:45.208Z,15.20
2023-04-23T09:47:53.689Z,15.30
2023-04-23T09:51:58.987Z,15.30
2023-04-23T09:56:03.904Z,15.40
2023-04-23T10:00:19.802Z,15.40
2023-04-23T10:04:25.695Z,15.30
2023-04-23T10:08:32.288Z,15.50
2023-04-23T10:12:53.686Z,15.50
2023-04-23T10:17:00.198Z,15.40
2023-04-23T10:21:06.323Z,15.50
2023-04-23T10:25:16.630Z,15.40
2023-04-23T10:29:27.224Z,15.40
2023-04-23T10:33:39.804Z,15.50
2023-04-23T10:37:48.349Z,15.50
2023-04-23T10:41:54.230Z,15.70
2023-04-23T10:45:58.171Z,16.20
2023-04-23T10:50:22.880Z,16.60
2023-04-23T10:54:33.037Z,16.70
2023-04-23T10:58:52.856Z,16.90
2023-04-23T11:02:57.796Z,17.30
2023-04-23T11:07:08.167Z,17.60
2023-04-23T11:11:11.539Z,18.00
2023-04-23T11:15:20.350Z,18.40
2023-04-23T11:19:26.149Z,19.10
2023-04-23T11:23:35.293Z,19.60
2023-04-23T11:27:40.867Z,20.20
2023-04-23T11:32:00.899Z,20.40
2023-04-23T11:36:07.973Z,20.50
2023-04-23T11:40:14.193Z,20.80
2023-04-23T11:44:20.307Z,21.00
2023-04-23T11:48:27.752Z,21.20
2023-04-23T11:52:30.869Z,21.60
2023-04-23T11:56:38.636Z,22.10
2023-04-23T12:00:41.747Z,22.20
2023-04-23T12:04:46.538Z,22.10
2023-04-23T12:08:52.484Z,22.10
2023-04-23T12:12:59.623Z,22.60
2023-04-23T12:17:13.949Z,22.60
2023-04-23T12:21:19.402Z,22.50
2023-04-23T12:25:26.370Z,22.50
2023-04-23T12:29:31.608Z,22.50
2023-04-23T12:33:34.678Z,22.50
2023-04-23T12:37:39.055Z,22.40
2023-04-23T12:41:42.168Z,22.40
2023-04-23T12:45:45.896Z,22.40
2023-04-23T12:49:53.463Z,22.50
2023-04-23T12:54:01.232Z,22.30
2023-04-23T12:58:08.456Z,22.20
2023-04-23T13:02:12.296Z,22.20
2023-04-23T13:06:15.522Z,22.40
2023-04-23T13:10:20.524Z,22.20
2023-04-23T13:14:23.740Z,22.30
2023-04-23T13:18:31.614Z,22.40
2023-04-23T13:22:34.585Z,22.20
2023-04-23T13:26:41.630Z,22.10
2023-04-23T13:30:44.669Z,22.10
2023-04-23T13:34:49.268Z,22.50
2023-04-23T13:43:16.214Z,23.10
2023-04-23T13:47:19.511Z,24.20
2023-04-23T13:51:34.886Z,25.30
2023-04-23T13:55:43.924Z,26.10
2023-04-23T13:59:48.610Z,26.50
2023-04-23T14:03:56.629Z,26.70
2023-04-23T14:08:02.244Z,26.90
2023-04-23T14:12:08.526Z,26.80
2023-04-23T14:16:17.859Z,26.90
2023-04-23T14:20:22.591Z,26.80
2023-04-23T14:24:31.106Z,26.40
2023-04-23T14:28:46.107Z,25.90
2023-04-23T14:32:55.193Z,26.40
2023-04-23T14:36:58.756Z,26.40
2023-04-23T14:41:04.357Z,25.60
2023-04-23T14:45:08.924Z,25.70
2023-04-23T14:49:15.792Z,26.10
2023-04-23T14:53:21.723Z,26.30
2023-04-23T14:57:35.521Z,26.00
2023-04-23T15:01:43.582Z,25.50
2023-04-23T15:05:48.075Z,25.20
2023-04-23T15:09:52.630Z,25.00
2023-04-23T15:14:04.853Z,24.40
2023-04-23T15:18:12.065Z,24.10
2023-04-23T15:22:16.677Z,24.30
2023-04-23T15:26:24.324Z,24.50
2023-04-23T15:30:28.906Z,24.50
2023-04-23T15:34:31.939Z,24.50
2023-04-23T15:38:36.963Z,24.70
2023-04-23T15:42:42.642Z,24.90
2023-04-23T15:46:45.687Z,24.90
2023-04-23T15:50:53.429Z,24.90
2023-04-23T15:54:58.050Z,25.00
2023-04-23T15:59:03.046Z,25.20
2023-04-23T16:03:09.008Z,25.20
2023-04-23T16:07:12.135Z,25.20
2023-04-23T16:11:19.620Z,25.10
2023-04-23T16:15:23.022Z,25.20
2023-04-23T16:19:26.357Z,25.30
2023-04-23T16:23:29.594Z,25.40
2023-04-23T16:27:34.867Z,25.50
2023-04-23T16:31:38.890Z,25.50
2023-04-23T16:35:42.100Z,25.40
2023-04-23T16:39:46.809Z,25.40
2023-04-23T16:43:53.666Z,25.20
2023-04-23T16:47:57.293Z,24.80
2023-04-23T16:52:01.885Z,24.20
2023-04-23T16:56:06.107Z,23.50
2023-04-23T17:00:15.347Z,22.70
2023-04-23T17:04:21.890Z,22.00
2023-04-23T17:08:29.514Z,21.50
2023-04-23T17:12:32.503Z,21.00
2023-04-23T17:16:37.501Z,20.70
2023-04-23T17:20:45.851Z,20.40
2023-04-23T17:24:51.606Z,20.10
2023-04-23T17:28:56.778Z,19.90
2023-04-23T17:33:13.005Z,19.70
2023-04-23T17:37:18.152Z,19.40
2023-04-23T17:41:25.207Z,19.20
2023-04-23T17:45:29.332Z,19.00
2023-04-23T17:49:35.774Z,18.70
2023-04-23T17:53:39.158Z,18.50
2023-04-23T17:57:44.366Z,18.30
2023-04-23T18:01:47.905Z,18.00
2023-04-23T18:05:52.582Z,17.80
2023-04-23T18:09:55.778Z,17.70
2023-04-23T18:13:59.270Z,17.50
2023-04-23T18:18:03.741Z,17.30
2023-04-23T18:22:08.327Z,17.20
2023-04-23T18:26:11.587Z,17.10
2023-04-23T18:30:23.303Z,17.00
2023-04-23T18:34:31.166Z,16.90
2023-04-23T18:38:47.948Z,16.80
2023-04-23T18:42:53.841Z,16.70
2023-04-23T18:46:57.042Z,16.60
2023-04-23T18:51:04.740Z,16.60
2023-04-23T18:55:12.204Z,16.60
2023-04-23T18:59:17.326Z,16.50
2023-04-23T19:03:26.815Z,16.50
2023-04-23T19:07:30.580Z,16.50
2023-04-23T19:11:37.995Z,16.40
2023-04-23T19:15:43.093Z,16.40
2023-04-23T19:19:46.436Z,16.40
2023-04-23T19:23:51.708Z,16.40
2023-04-23T19:27:57.939Z,16.30
2023-04-23T19:32:01.047Z,16.30
2023-04-23T19:36:04.530Z,16.30
2023-04-23T19:40:09.569Z,16.30
2023-04-23T19:44:23.509Z,16.30
2023-04-23T19:48:27.755Z,16.20
2023-04-23T19:52:30.827Z,16.10
2023-04-23T19:56:36.281Z,15.60
2023-04-23T20:00:41.852Z,14.50
2023-04-23T20:04:45.714Z,13.50
2023-04-23T20:09:09.211Z,12.70
2023-04-23T20:13:19.417Z,12.20
2023-04-23T20:17:26.584Z,11.90
2023-04-23T20:21:29.652Z,11.70
2023-04-23T20:25:33.559Z,11.60
2023-04-23T20:29:36.925Z,11.60
2023-04-23T20:33:48.293Z,11.60
2023-04-23T20:37:53.548Z,11.60
2023-04-23T20:42:01.073Z,11.60
2023-04-23T20:46:10.780Z,11.60
2023-04-23T20:50:15.322Z,11.70
2023-04-23T20:54:18.462Z,11.80
2023-04-23T20:58:21.495Z,11.80
2023-04-23T21:02:24.645Z,11.90
2023-04-23T21:06:31.318Z,12.00
2023-04-23T21:10:34.695Z,12.00
2023-04-23T21:14:39.110Z,12.10
2023-04-23T21:18:44.902Z,12.10
2023-04-23T21:22:49.317Z,12.10
2023-04-23T21:26:56.115Z,12.10
2023-04-23T21:31:09.840Z,12.20
2023-04-23T21:35:16.778Z,12.20
2023-04-23T21:39:22.243Z,12.20
2023-04-23T21:43:27.507Z,12.20
2023-04-23T21:47:41.653Z,12.20
2023-04-23T21:51:44.709Z,12.10
2023-04-23T21:55:49.156Z,12.10
2023-04-23T21:59:56.830Z,12.10
2023-04-23T22:04:00.266Z,12.10
2023-04-23T22:08:05.994Z,12.10
2023-04-23T22:12:11.894Z,12.10
2023-04-23T22:16:27.448Z,12.10
2023-04-23T22:20:32.217Z,12.00
2023-04-23T22:24:41.765Z,12.00
2023-04-23T22:28:46.760Z,12.00
2023-04-23T22:32:49.813Z,12.00
2023-04-23T22:36:55.752Z,12.00
2023-04-23T22:40:59.625Z,12.00
2023-04-23T22:45:04.342Z,12.00
2023-04-23T22:49:11.177Z,12.00
2023-04-23T22:53:16.944Z,12.00
2023-04-23T22:57:22.043Z,12.00
2023-04-23T23:01:29.119Z,12.00
2023-04-23T23:05:32.189Z,12.00
2023-04-23T23:09:35.349Z,12.10
2023-04-23T23:13:43.928Z,12.10
2023-04-23T23:17:49.767Z,12.10
2023-04-23T23:21:59.721Z,12.00
2023-04-23T23:26:17.234Z,12.00
2023-04-23T23:30:23.190Z,11.90
2023-04-23T23:34:30.496Z,11.90
2023-04-23T23:38:36.356Z,11.90
2023-04-23T23:42:43.358Z,11.90
2023-04-23T23:46:46.696Z,11.90
2023-04-23T23:50:51.207Z,12.00
2023-04-23T23:54:54.493Z,12.00
2023-04-23T23:58:58.887Z,12.00
